createdAt,value
2023-05-14T00:02:57.987Z,16.33
2023-05-14T00:08:00.292Z,15.18
2023-05-14T00:13:02.385Z,16.23
2023-05-14T00:18:04.669Z,13.30
2023-05-14T00:23:07.135Z,13.95
2023-05-14T00:28:09.369Z,14.20
2023-05-14T00:33:11.482Z,12.50
2023-05-14T00:38:17.129Z,14.40
2023-05-14T00:43:23.208Z,12.15
2023-05-14T00:48:25.645Z,12.77
2023-05-14T00:53:28.526Z,13.35
2023-05-14T00:58:30.881Z,13.77
2023-05-14T01:03:33.797Z,12.90
2023-05-14T01:08:45.036Z,13.25
2023-05-14T01:13:57.405Z,16.05
2023-05-14T01:19:00.892Z,12.73
2023-05-14T01:24:04.889Z,15.80
2023-05-14T01:29:19.606Z,17.77
2023-05-14T01:34:24.232Z,12.70
2023-05-14T01:39:26.827Z,11.38
2023-05-14T01:44:29.110Z,11.68
2023-05-14T01:49:31.219Z,13.52
2023-05-14T01:54:33.313Z,12.60
2023-05-14T01:59:35.721Z,11.25
2023-05-14T02:04:37.849Z,11.40
2023-05-14T02:09:41.038Z,12.18
2023-05-14T02:14:43.271Z,12.43
2023-05-14T02:19:45.484Z,12.48
2023-05-14T02:24:49.756Z,13.05
2023-05-14T02:29:53.264Z,10.90
2023-05-14T02:34:55.375Z,14.82
2023-05-14T02:39:57.476Z,11.90
2023-05-14T02:44:59.757Z,12.38
2023-05-14T02:50:02.079Z,12.10
2023-05-14T02:55:04.913Z,13.25
2023-05-14T03:00:09.174Z,12.05
2023-05-14T03:05:11.767Z,12.95
2023-05-14T03:10:13.836Z,12.35
2023-05-14T03:15:15.920Z,11.82
2023-05-14T03:20:18.198Z,11.77
2023-05-14T03:25:20.556Z,11.70
2023-05-14T03:30:23.039Z,14.23
2023-05-14T03:35:25.429Z,13.43
2023-05-14T03:40:27.551Z,14.23
2023-05-14T03:45:30.476Z,12.63
2023-05-14T03:50:34.390Z,16.75
2023-05-14T03:55:36.849Z,17.27
2023-05-14T04:00:39.379Z,15.02
2023-05-14T04:05:41.517Z,16.35
2023-05-14T04:10:43.707Z,13.75
2023-05-14T04:15:45.845Z,15.30
2023-05-14T04:20:48.740Z,14.13
2023-05-14T04:25:50.956Z,15.43
2023-05-14T04:30:53.093Z,16.90
2023-05-14T04:35:55.758Z,18.30
2023-05-14T04:40:58.387Z,18.65
2023-05-14T04:46:00.779Z,15.25
2023-05-14T04:51:04.455Z,14.77
2023-05-14T04:56:07.747Z,13.77
2023-05-14T05:01:10.068Z,12.68
2023-05-14T05:06:12.185Z,13.27
2023-05-14T05:11:14.291Z,12.45
2023-05-14T05:16:16.431Z,13.05
2023-05-14T05:21:18.522Z,14.68
2023-05-14T05:26:22.269Z,11.93
2023-05-14T05:31:24.567Z,15.45
2023-05-14T05:36:26.810Z,13.25
2023-05-14T05:41:30.149Z,12.77
2023-05-14T05:46:32.296Z,13.98
2023-05-14T05:51:34.368Z,11.77
2023-05-14T05:56:36.407Z,31.98
2023-05-14T06:01:38.553Z,14.02
2023-05-14T06:06:40.828Z,21.27
2023-05-14T06:11:42.937Z,17.02
2023-05-14T06:16:45.057Z,14.23
2023-05-14T06:21:47.271Z,14.40
2023-05-14T06:26:49.477Z,16.58
2023-05-14T06:31:51.578Z,15.23
2023-05-14T06:36:53.691Z,20.10
2023-05-14T06:41:55.811Z,11.48
2023-05-14T06:46:59.018Z,10.35
2023-05-14T06:52:01.196Z,11.88
2023-05-14T06:57:03.424Z,15.75
2023-05-14T07:02:05.496Z,12.52
2023-05-14T07:07:07.943Z,19.80
2023-05-14T07:12:09.989Z,16.52
2023-05-14T07:17:12.079Z,15.50
2023-05-14T07:22:14.200Z,14.80
2023-05-14T07:27:17.234Z,17.88
2023-05-14T07:32:19.294Z,15.50
2023-05-14T07:37:24.188Z,14.68
2023-05-14T07:42:35.834Z,12.73
2023-05-14T07:47:40.898Z,14.90
2023-05-14T07:52:43.093Z,18.73
2023-05-14T07:57:45.726Z,17.52
2023-05-14T08:02:49.095Z,16.48
2023-05-14T08:07:51.432Z,20.17
2023-05-14T08:12:53.530Z,19.17
2023-05-14T08:17:55.837Z,17.90
2023-05-14T08:22:58.194Z,16.27
2023-05-14T08:28:01.447Z,18.00
2023-05-14T08:33:03.647Z,25.70
2023-05-14T08:38:05.828Z,20.00
2023-05-14T08:43:10.624Z,24.33
2023-05-14T08:48:16.558Z,24.08
2023-05-14T08:53:18.645Z,23.52
2023-05-14T08:58:20.820Z,24.30
2023-05-14T09:03:23.936Z,28.27
2023-05-14T09:08:26.107Z,23.75
2023-05-14T09:13:28.404Z,22.48
2023-05-14T09:18:30.700Z,21.52
2023-05-14T09:23:34.491Z,19.90
2023-05-14T09:28:40.258Z,22.80
2023-05-14T09:33:43.189Z,26.38
2023-05-14T09:38:45.596Z,24.55
2023-05-14T09:43:47.707Z,20.02
2023-05-14T09:48:50.192Z,22.67
2023-05-14T09:53:54.348Z,24.13
2023-05-14T09:58:56.653Z,20.67
2023-05-14T10:03:59.323Z,19.60
2023-05-14T10:09:04.147Z,18.23
2023-05-14T10:14:18.697Z,18.83
2023-05-14T10:19:25.094Z,18.33
2023-05-14T10:24:27.824Z,17.23
2023-05-14T10:29:38.007Z,16.98
2023-05-14T10:34:41.505Z,17.35
2023-05-14T10:39:46.317Z,17.63
2023-05-14T10:44:58.530Z,13.50
2023-05-14T10:50:06.417Z,16.27
2023-05-14T10:55:09.221Z,15.32
2023-05-14T11:00:12.976Z,13.02
2023-05-14T11:05:17.778Z,13.95
2023-05-14T11:10:22.121Z,14.50
2023-05-14T11:15:29.197Z,18.95
2023-05-14T11:20:32.795Z,17.38
2023-05-14T11:25:37.972Z,18.13
2023-05-14T11:30:40.186Z,15.35
2023-05-14T11:35:45.420Z,13.02
2023-05-14T11:40:58.675Z,13.95
2023-05-14T11:46:00.823Z,13.35
2023-05-14T11:51:04.662Z,12.13
2023-05-14T11:56:09.527Z,13.63
2023-05-14T12:01:13.767Z,18.67
2023-05-14T12:06:15.950Z,14.30
2023-05-14T12:11:21.342Z,15.15
2023-05-14T12:16:23.614Z,11.88
2023-05-14T12:21:27.437Z,15.07
2023-05-14T12:26:33.848Z,14.85
2023-05-14T12:31:36.935Z,20.70
2023-05-14T12:36:39.170Z,18.20
2023-05-14T12:41:41.335Z,22.85
2023-05-14T12:46:43.455Z,18.58
2023-05-14T12:51:47.002Z,20.08
2023-05-14T12:56:49.067Z,19.25
2023-05-14T13:01:52.531Z,16.58
2023-05-14T13:06:54.624Z,14.30
2023-05-14T13:11:56.747Z,14.40
2023-05-14T13:16:58.884Z,12.80
2023-05-14T13:22:01.025Z,13.63
2023-05-14T13:27:03.148Z,11.95
2023-05-14T13:32:05.761Z,10.23
2023-05-14T13:37:07.825Z,9.55
2023-05-14T13:42:09.900Z,10.00
2023-05-14T13:47:12.048Z,6.60
2023-05-14T13:52:14.179Z,7.05
2023-05-14T13:57:16.265Z,8.35
2023-05-14T14:02:18.349Z,9.93
2023-05-14T14:07:21.232Z,4.80
2023-05-14T14:12:23.606Z,5.45
2023-05-14T14:17:25.718Z,6.65
2023-05-14T14:22:29.111Z,6.32
2023-05-14T14:27:32.281Z,6.82
2023-05-14T14:32:34.453Z,5.47
2023-05-14T14:37:37.142Z,5.20
2023-05-14T14:42:39.221Z,6.70
2023-05-14T14:47:46.360Z,4.65
2023-05-14T14:52:48.460Z,5.20
2023-05-14T14:57:50.584Z,4.18
2023-05-14T15:02:52.766Z,4.35
2023-05-14T15:07:55.091Z,5.00
2023-05-14T15:12:59.038Z,6.78
2023-05-14T15:18:02.153Z,5.95
2023-05-14T15:23:04.448Z,3.58
2023-05-14T15:28:07.676Z,5.15
2023-05-14T15:33:10.987Z,3.60
2023-05-14T15:38:13.193Z,4.47
2023-05-14T15:43:15.531Z,4.72
2023-05-14T15:48:17.735Z,5.07
2023-05-14T15:53:20.145Z,5.00
2023-05-14T15:58:22.211Z,4.78
2023-05-14T16:03:24.445Z,4.97
2023-05-14T16:08:26.680Z,4.03
2023-05-14T16:13:28.817Z,4.38
2023-05-14T16:18:30.911Z,4.38
2023-05-14T16:23:33.376Z,3.72
2023-05-14T16:28:35.612Z,4.05
2023-05-14T16:33:37.759Z,3.10
2023-05-14T16:38:52.331Z,4.75
2023-05-14T16:44:01.968Z,7.03
2023-05-14T16:49:04.144Z,5.45
2023-05-14T16:54:06.268Z,12.00
2023-05-14T16:59:08.368Z,5.45
2023-05-14T17:04:11.276Z,7.82
2023-05-14T17:09:13.476Z,7.00
2023-05-14T17:14:15.540Z,4.00
2023-05-14T17:19:17.629Z,5.50
2023-05-14T17:24:19.729Z,7.43
2023-05-14T17:29:21.788Z,7.63
2023-05-14T17:34:24.180Z,7.30
2023-05-14T17:39:26.482Z,6.53
2023-05-14T17:44:28.539Z,5.03
2023-05-14T17:49:30.850Z,6.45
2023-05-14T17:54:32.902Z,4.75
2023-05-14T17:59:34.949Z,6.68
2023-05-14T18:04:37.204Z,7.28
2023-05-14T18:09:39.438Z,6.53
2023-05-14T18:14:43.547Z,7.93
2023-05-14T18:19:47.108Z,9.15
2023-05-14T18:24:49.212Z,9.07
2023-05-14T18:29:51.780Z,8.63
2023-05-14T18:34:53.980Z,10.95
2023-05-14T18:39:56.145Z,10.80
2023-05-14T18:44:58.237Z,8.05
2023-05-14T18:50:02.042Z,8.57
2023-05-14T18:55:04.876Z,7.00
2023-05-14T19:00:09.338Z,10.20
2023-05-14T19:05:11.410Z,11.30
2023-05-14T19:10:13.982Z,9.88
2023-05-14T19:15:16.158Z,12.48
2023-05-14T19:20:18.252Z,11.70
2023-05-14T19:25:20.417Z,10.52
2023-05-14T19:30:23.624Z,9.20
2023-05-14T19:35:26.150Z,10.13
2023-05-14T19:40:28.787Z,8.40
2023-05-14T19:45:30.844Z,8.75
2023-05-14T19:50:33.848Z,7.43
2023-05-14T19:55:35.974Z,10.50
2023-05-14T20:00:38.062Z,9.10
2023-05-14T20:05:40.147Z,7.20
2023-05-14T20:10:44.603Z,6.72
2023-05-14T20:15:46.745Z,8.10
2023-05-14T20:20:49.134Z,6.43
2023-05-14T20:25:51.793Z,9.02
2023-05-14T20:30:54.873Z,7.32
2023-05-14T20:35:57.237Z,5.00
2023-05-14T20:40:59.303Z,6.82
2023-05-14T20:46:01.454Z,9.00
2023-05-14T20:51:06.468Z,6.90
2023-05-14T20:56:08.563Z,12.97
2023-05-14T21:01:10.748Z,6.60
2023-05-14T21:06:12.958Z,7.60
2023-05-14T21:11:15.111Z,5.95
2023-05-14T21:16:17.388Z,6.93
2023-05-14T21:21:19.485Z,6.20
2023-05-14T21:26:24.480Z,7.07
2023-05-14T21:31:26.761Z,6.00
2023-05-14T21:36:29.115Z,6.30
2023-05-14T21:41:32.244Z,6.47
2023-05-14T21:46:34.437Z,7.13
2023-05-14T21:51:36.547Z,7.53
2023-05-14T21:56:38.696Z,4.80
2023-05-14T22:02:00.706Z,6.70
2023-05-14T22:07:03.344Z,7.75
2023-05-14T22:12:06.740Z,6.38
2023-05-14T22:17:08.799Z,7.40
2023-05-14T22:22:10.876Z,6.82
2023-05-14T22:27:13.017Z,8.43
2023-05-14T22:32:15.116Z,6.55
2023-05-14T22:37:17.512Z,6.55
2023-05-14T22:42:20.416Z,6.68
2023-05-14T22:47:22.592Z,6.28
2023-05-14T22:52:25.943Z,5.63
2023-05-14T22:57:28.113Z,5.50
2023-05-14T23:02:30.324Z,7.20
2023-05-14T23:07:32.460Z,7.20
2023-05-14T23:12:34.640Z,5.75
2023-05-14T23:17:37.572Z,6.60
2023-05-14T23:22:40.899Z,5.60
2023-05-14T23:27:43.020Z,4.72
2023-05-14T23:32:45.135Z,6.07
2023-05-14T23:37:49.528Z,7.95
2023-05-14T23:42:51.746Z,7.82
2023-05-14T23:47:54.876Z,6.40
2023-05-14T23:52:57.199Z,5.90
2023-05-14T23:57:59.400Z,5.10
